sensor_id;sensor_type;location;lat;lon;timestamp;pressure;altitude;pressure_sealevel;temperature;humidity
58662;BME280;44432;49.786;22.760;2023-08-17T00:00:15;99790.98;;;20.87;92.93
58662;BME280;44432;49.786;22.760;2023-08-17T00:03:07;99790.17;;;20.85;93.10
58662;BME280;44432;49.786;22.760;2023-08-17T00:05:38;99784.00;;;20.81;93.02
58662;BME280;44432;49.786;22.760;2023-08-17T00:08:10;99778.33;;;20.78;93.25
58662;BME280;44432;49.786;22.760;2023-08-17T00:10:41;99779.14;;;20.78;93.29
58662;BME280;44432;49.786;22.760;2023-08-17T00:13:11;99781.27;;;20.77;93.51
58662;BME280;44432;49.786;22.760;2023-08-17T00:15:43;99776.56;;;20.77;93.74
58662;BME280;44432;49.786;22.760;2023-08-17T00:18:14;99777.70;;;20.78;93.85
58662;BME280;44432;49.786;22.760;2023-08-17T00:20:45;99768.40;;;20.78;93.93
58662;BME280;44432;49.786;22.760;2023-08-17T00:23:15;99770.39;;;20.79;94.14
58662;BME280;44432;49.786;22.760;2023-08-17T00:25:46;99767.70;;;20.77;93.62
58662;BME280;44432;49.786;22.760;2023-08-17T00:28:17;99764.54;;;20.75;93.73
58662;BME280;44432;49.786;22.760;2023-08-17T00:30:48;99761.10;;;20.75;93.92
58662;BME280;44432;49.786;22.760;2023-08-17T00:33:18;99756.75;;;20.74;94.06
58662;BME280;44432;49.786;22.760;2023-08-17T00:35:49;99757.30;;;20.74;94.35
58662;BME280;44432;49.786;22.760;2023-08-17T00:38:20;99756.48;;;20.75;94.31
58662;BME280;44432;49.786;22.760;2023-08-17T00:40:51;99760.61;;;20.76;94.29
58662;BME280;44432;49.786;22.760;2023-08-17T00:43:21;99766.52;;;20.76;94.42
58662;BME280;44432;49.786;22.760;2023-08-17T00:45:52;99764.97;;;20.76;94.48
58662;BME280;44432;49.786;22.760;2023-08-17T00:48:23;99767.55;;;20.76;94.38
58662;BME280;44432;49.786;22.760;2023-08-17T00:50:55;99754.13;;;20.74;94.53
58662;BME280;44432;49.786;22.760;2023-08-17T00:53:28;99750.85;;;20.75;94.49
58662;BME280;44432;49.786;22.760;2023-08-17T00:56:01;99748.38;;;20.74;94.34
58662;BME280;44432;49.786;22.760;2023-08-17T00:58:33;99744.36;;;20.72;94.27
58662;BME280;44432;49.786;22.760;2023-08-17T01:01:04;99742.32;;;20.71;94.32
58662;BME280;44432;49.786;22.760;2023-08-17T01:03:35;99746.61;;;20.71;94.41
58662;BME280;44432;49.786;22.760;2023-08-17T01:06:06;99744.14;;;20.71;94.38
58662;BME280;44432;49.786;22.760;2023-08-17T01:08:37;99742.85;;;20.69;94.34
58662;BME280;44432;49.786;22.760;2023-08-17T01:11:17;99741.83;;;20.67;94.38
58662;BME280;44432;49.786;22.760;2023-08-17T01:13:55;99738.13;;;20.66;94.31
58662;BME280;44432;49.786;22.760;2023-08-17T01:16:29;99739.79;;;20.65;94.28
58662;BME280;44432;49.786;22.760;2023-08-17T01:19:02;99735.70;;;20.64;94.44
58662;BME280;44432;49.786;22.760;2023-08-17T01:21:40;99732.77;;;20.62;94.39
58662;BME280;44432;49.786;22.760;2023-08-17T01:24:13;99728.73;;;20.60;94.52
58662;BME280;44432;49.786;22.760;2023-08-17T01:26:44;99721.86;;;20.59;94.51
58662;BME280;44432;49.786;22.760;2023-08-17T01:29:15;99719.98;;;20.57;94.46
58662;BME280;44432;49.786;22.760;2023-08-17T01:31:52;99729.95;;;20.55;94.40
58662;BME280;44432;49.786;22.760;2023-08-17T01:34:25;99729.90;;;20.52;94.62
58662;BME280;44432;49.786;22.760;2023-08-17T01:36:56;99730.64;;;20.48;94.58
58662;BME280;44432;49.786;22.760;2023-08-17T01:39:33;99728.60;;;20.43;94.66
58662;BME280;44432;49.786;22.760;2023-08-17T01:42:06;99732.25;;;20.40;94.81
58662;BME280;44432;49.786;22.760;2023-08-17T01:44:37;99735.70;;;20.37;94.67
58662;BME280;44432;49.786;22.760;2023-08-17T01:47:07;99735.14;;;20.33;94.76
58662;BME280;44432;49.786;22.760;2023-08-17T01:49:39;99739.00;;;20.29;94.82
58662;BME280;44432;49.786;22.760;2023-08-17T01:52:09;99732.13;;;20.27;95.11
58662;BME280;44432;49.786;22.760;2023-08-17T01:54:40;99726.49;;;20.25;94.94
58662;BME280;44432;49.786;22.760;2023-08-17T01:57:11;99731.27;;;20.24;94.96
58662;BME280;44432;49.786;22.760;2023-08-17T01:59:41;99728.42;;;20.22;95.02
58662;BME280;44432;49.786;22.760;2023-08-17T02:02:12;99722.41;;;20.20;95.10
58662;BME280;44432;49.786;22.760;2023-08-17T02:04:43;99715.27;;;20.18;95.10
58662;BME280;44432;49.786;22.760;2023-08-17T02:07:14;99718.21;;;20.16;95.21
58662;BME280;44432;49.786;22.760;2023-08-17T02:09:45;99720.84;;;20.14;95.15
58662;BME280;44432;49.786;22.760;2023-08-17T02:12:15;99723.23;;;20.12;95.23
58662;BME280;44432;49.786;22.760;2023-08-17T02:14:46;99727.52;;;20.11;95.27
58662;BME280;44432;49.786;22.760;2023-08-17T02:17:18;99726.40;;;20.09;95.44
58662;BME280;44432;49.786;22.760;2023-08-17T02:19:51;99724.84;;;20.07;95.42
58662;BME280;44432;49.786;22.760;2023-08-17T02:22:21;99722.74;;;20.06;95.77
58662;BME280;44432;49.786;22.760;2023-08-17T02:24:52;99724.46;;;20.06;95.91
58662;BME280;44432;49.786;22.760;2023-08-17T02:27:22;99721.46;;;20.05;95.94
58662;BME280;44432;49.786;22.760;2023-08-17T02:29:53;99719.15;;;20.05;96.07
58662;BME280;44432;49.786;22.760;2023-08-17T02:32:24;99715.08;;;20.04;95.91
58662;BME280;44432;49.786;22.760;2023-08-17T02:34:54;99716.79;;;20.02;96.07
58662;BME280;44432;49.786;22.760;2023-08-17T02:37:25;99715.70;;;20.01;95.98
58662;BME280;44432;49.786;22.760;2023-08-17T02:39:56;99714.42;;;19.99;96.06
58662;BME280;44432;49.786;22.760;2023-08-17T02:42:27;99712.63;;;19.94;95.88
58662;BME280;44432;49.786;22.760;2023-08-17T02:44:57;99707.79;;;19.89;95.81
58662;BME280;44432;49.786;22.760;2023-08-17T02:47:28;99703.81;;;19.85;95.92
58662;BME280;44432;49.786;22.760;2023-08-17T02:49:59;99699.08;;;19.82;96.14
58662;BME280;44432;49.786;22.760;2023-08-17T02:52:29;99694.20;;;19.77;96.16
58662;BME280;44432;49.786;22.760;2023-08-17T02:55:00;99698.92;;;19.76;96.37
58662;BME280;44432;49.786;22.760;2023-08-17T02:57:30;99702.14;;;19.75;96.48
58662;BME280;44432;49.786;22.760;2023-08-17T03:00:01;99703.48;;;19.72;96.65
58662;BME280;44432;49.786;22.760;2023-08-17T03:02:33;99702.23;;;19.72;96.72
58662;BME280;44432;49.786;22.760;2023-08-17T03:05:04;99704.21;;;19.71;96.81
58662;BME280;44432;49.786;22.760;2023-08-17T03:07:34;99707.48;;;19.71;96.90
58662;BME280;44432;49.786;22.760;2023-08-17T03:10:06;99705.22;;;19.68;96.96
58662;BME280;44432;49.786;22.760;2023-08-17T03:12:37;99707.52;;;19.71;96.91
58662;BME280;44432;49.786;22.760;2023-08-17T03:15:09;99708.81;;;19.71;97.03
58662;BME280;44432;49.786;22.760;2023-08-17T03:17:39;99711.29;;;19.72;97.13
58662;BME280;44432;49.786;22.760;2023-08-17T03:20:11;99715.27;;;19.73;97.26
58662;BME280;44432;49.786;22.760;2023-08-17T03:22:41;99715.91;;;19.74;97.14
58662;BME280;44432;49.786;22.760;2023-08-17T03:25:12;99727.15;;;19.75;97.22
58662;BME280;44432;49.786;22.760;2023-08-17T03:27:43;99726.45;;;19.78;97.42
58662;BME280;44432;49.786;22.760;2023-08-17T03:30:13;99734.65;;;19.81;97.41
58662;BME280;44432;49.786;22.760;2023-08-17T03:32:44;99742.16;;;19.81;97.16
58662;BME280;44432;49.786;22.760;2023-08-17T03:35:17;99746.66;;;19.80;97.20
58662;BME280;44432;49.786;22.760;2023-08-17T03:37:48;99755.51;;;19.82;97.21
58662;BME280;44432;49.786;22.760;2023-08-17T03:40:19;99754.45;;;19.84;97.26
58662;BME280;44432;49.786;22.760;2023-08-17T03:42:50;99752.89;;;19.85;97.13
58662;BME280;44432;49.786;22.760;2023-08-17T03:45:20;99757.83;;;19.86;97.28
58662;BME280;44432;49.786;22.760;2023-08-17T03:47:51;99757.16;;;19.89;97.37
58662;BME280;44432;49.786;22.760;2023-08-17T03:50:22;99749.02;;;19.92;97.32
58662;BME280;44432;49.786;22.760;2023-08-17T03:52:53;99748.17;;;19.97;97.12
58662;BME280;44432;49.786;22.760;2023-08-17T03:55:23;99748.09;;;20.01;97.03
58662;BME280;44432;49.786;22.760;2023-08-17T03:57:54;99743.12;;;20.06;97.06
58662;BME280;44432;49.786;22.760;2023-08-17T04:00:24;99741.15;;;20.11;96.95
58662;BME280;44432;49.786;22.760;2023-08-17T04:02:55;99739.23;;;20.14;96.75
58662;BME280;44432;49.786;22.760;2023-08-17T04:05:26;99745.58;;;20.20;96.74
58662;BME280;44432;49.786;22.760;2023-08-17T04:07:58;99746.17;;;20.23;96.62
58662;BME280;44432;49.786;22.760;2023-08-17T04:10:31;99746.18;;;20.27;96.60
58662;BME280;44432;49.786;22.760;2023-08-17T04:13:01;99752.84;;;20.30;96.44
58662;BME280;44432;49.786;22.760;2023-08-17T04:15:32;99753.05;;;20.33;96.22
58662;BME280;44432;49.786;22.760;2023-08-17T04:18:03;99756.75;;;20.29;95.84
58662;BME280;44432;49.786;22.760;2023-08-17T04:20:33;99761.25;;;20.27;95.91
58662;BME280;44432;49.786;22.760;2023-08-17T04:26:53;99764.52;;;20.27;96.19
58662;BME280;44432;49.786;22.760;2023-08-17T04:29:24;99766.39;;;20.25;95.89
58662;BME280;44432;49.786;22.760;2023-08-17T04:31:54;99764.89;;;20.26;96.02
58662;BME280;44432;49.786;22.760;2023-08-17T04:34:25;99765.86;;;20.27;96.13
58662;BME280;44432;49.786;22.760;2023-08-17T04:36:56;99766.46;;;20.29;96.20
58662;BME280;44432;49.786;22.760;2023-08-17T04:39:26;99771.89;;;20.34;96.32
58662;BME280;44432;49.786;22.760;2023-08-17T04:41:57;99772.58;;;20.39;96.31
58662;BME280;44432;49.786;22.760;2023-08-17T04:44:28;99768.39;;;20.39;96.21
58662;BME280;44432;49.786;22.760;2023-08-17T04:46:59;99769.15;;;20.44;96.57
58662;BME280;44432;49.786;22.760;2023-08-17T04:49:29;99768.25;;;20.50;96.78
58662;BME280;44432;49.786;22.760;2023-08-17T04:52:00;99767.52;;;20.57;96.62
58662;BME280;44432;49.786;22.760;2023-08-17T04:54:31;99760.34;;;20.63;96.35
58662;BME280;44432;49.786;22.760;2023-08-17T04:57:02;99766.95;;;20.71;96.14
58662;BME280;44432;49.786;22.760;2023-08-17T04:59:34;99766.52;;;20.79;96.47
58662;BME280;44432;49.786;22.760;2023-08-17T05:02:05;99772.89;;;20.92;96.36
58662;BME280;44432;49.786;22.760;2023-08-17T05:04:36;99778.48;;;21.04;95.95
58662;BME280;44432;49.786;22.760;2023-08-17T05:07:09;99777.88;;;21.13;95.49
58662;BME280;44432;49.786;22.760;2023-08-17T05:09:39;99776.02;;;21.21;95.00
58662;BME280;44432;49.786;22.760;2023-08-17T05:12:10;99773.92;;;21.28;94.57
58662;BME280;44432;49.786;22.760;2023-08-17T05:14:41;99771.98;;;21.36;94.42
58662;BME280;44432;49.786;22.760;2023-08-17T05:17:11;99771.54;;;21.43;94.29
58662;BME280;44432;49.786;22.760;2023-08-17T05:19:42;99768.46;;;21.49;94.05
58662;BME280;44432;49.786;22.760;2023-08-17T05:22:13;99765.66;;;21.56;93.49
58662;BME280;44432;49.786;22.760;2023-08-17T05:24:44;99770.15;;;21.64;93.40
58662;BME280;44432;49.786;22.760;2023-08-17T05:27:14;99771.90;;;21.71;93.08
58662;BME280;44432;49.786;22.760;2023-08-17T05:29:45;99774.73;;;21.78;92.96
58662;BME280;44432;49.786;22.760;2023-08-17T05:32:16;99771.45;;;21.86;92.96
58662;BME280;44432;49.786;22.760;2023-08-17T05:34:47;99773.41;;;21.95;92.85
58662;BME280;44432;49.786;22.760;2023-08-17T05:37:18;99772.00;;;22.01;92.40
58662;BME280;44432;49.786;22.760;2023-08-17T05:39:49;99772.97;;;22.02;92.07
58662;BME280;44432;49.786;22.760;2023-08-17T05:42:20;99771.24;;;22.05;91.89
58662;BME280;44432;49.786;22.760;2023-08-17T05:44:51;99769.30;;;22.07;91.72
58662;BME280;44432;49.786;22.760;2023-08-17T05:47:21;99768.00;;;22.08;91.40
58662;BME280;44432;49.786;22.760;2023-08-17T05:49:52;99768.23;;;22.05;91.27
58662;BME280;44432;49.786;22.760;2023-08-17T05:52:23;99770.92;;;22.06;91.43
58662;BME280;44432;49.786;22.760;2023-08-17T05:54:53;99773.27;;;22.08;91.61
58662;BME280;44432;49.786;22.760;2023-08-17T05:57:24;99773.46;;;22.14;91.60
58662;BME280;44432;49.786;22.760;2023-08-17T05:59:55;99768.33;;;22.20;91.47
58662;BME280;44432;49.786;22.760;2023-08-17T06:02:26;99762.96;;;22.26;91.48
58662;BME280;44432;49.786;22.760;2023-08-17T06:04:56;99759.77;;;22.32;91.38
58662;BME280;44432;49.786;22.760;2023-08-17T06:07:27;99763.05;;;22.39;91.20
58662;BME280;44432;49.786;22.760;2023-08-17T06:09:58;99760.92;;;22.45;91.02
58662;BME280;44432;49.786;22.760;2023-08-17T06:12:29;99756.54;;;22.49;90.55
58662;BME280;44432;49.786;22.760;2023-08-17T06:15:00;99754.09;;;22.54;90.45
58662;BME280;44432;49.786;22.760;2023-08-17T06:17:31;99755.16;;;22.62;90.39
58662;BME280;44432;49.786;22.760;2023-08-17T06:20:02;99753.34;;;22.69;90.23
58662;BME280;44432;49.786;22.760;2023-08-17T06:22:33;99754.30;;;22.76;89.75
58662;BME280;44432;49.786;22.760;2023-08-17T06:25:04;99762.64;;;22.78;89.19
58662;BME280;44432;49.786;22.760;2023-08-17T06:27:35;99764.26;;;22.81;89.15
58662;BME280;44432;49.786;22.760;2023-08-17T06:30:08;99762.19;;;22.89;88.98
58662;BME280;44432;49.786;22.760;2023-08-17T06:32:38;99765.06;;;22.98;88.97
58662;BME280;44432;49.786;22.760;2023-08-17T06:35:10;99767.05;;;23.11;89.09
58662;BME280;44432;49.786;22.760;2023-08-17T06:37:40;99769.02;;;23.27;89.20
58662;BME280;44432;49.786;22.760;2023-08-17T06:40:12;99764.94;;;23.42;88.88
58662;BME280;44432;49.786;22.760;2023-08-17T06:42:42;99762.76;;;23.55;88.69
58662;BME280;44432;49.786;22.760;2023-08-17T06:45:13;99761.34;;;23.67;88.24
58662;BME280;44432;49.786;22.760;2023-08-17T06:47:47;99760.73;;;23.79;87.67
58662;BME280;44432;49.786;22.760;2023-08-17T06:50:19;99759.15;;;23.92;87.37
58662;BME280;44432;49.786;22.760;2023-08-17T06:52:49;99758.89;;;24.03;86.70
58662;BME280;44432;49.786;22.760;2023-08-17T06:55:20;99760.74;;;24.14;86.04
58662;BME280;44432;49.786;22.760;2023-08-17T06:57:51;99758.17;;;24.22;85.35
58662;BME280;44432;49.786;22.760;2023-08-17T07:00:22;99763.09;;;24.30;84.93
58662;BME280;44432;49.786;22.760;2023-08-17T07:02:52;99758.73;;;24.38;84.62
58662;BME280;44432;49.786;22.760;2023-08-17T07:05:23;99756.49;;;24.43;84.34
58662;BME280;44432;49.786;22.760;2023-08-17T07:07:54;99756.91;;;24.48;84.03
58662;BME280;44432;49.786;22.760;2023-08-17T07:10:25;99758.36;;;24.52;83.91
58662;BME280;44432;49.786;22.760;2023-08-17T07:12:55;99761.98;;;24.59;83.78
58662;BME280;44432;49.786;22.760;2023-08-17T07:15:26;99766.50;;;24.67;83.40
58662;BME280;44432;49.786;22.760;2023-08-17T07:17:57;99773.96;;;24.81;83.54
58662;BME280;44432;49.786;22.760;2023-08-17T07:20:27;99779.19;;;24.96;83.26
58662;BME280;44432;49.786;22.760;2023-08-17T07:22:58;99772.52;;;25.07;81.58
58662;BME280;44432;49.786;22.760;2023-08-17T07:25:29;99771.59;;;25.07;80.80
58662;BME280;44432;49.786;22.760;2023-08-17T07:28:00;99765.95;;;25.05;80.28
58662;BME280;44432;49.786;22.760;2023-08-17T07:30:31;99760.82;;;24.92;79.89
58662;BME280;44432;49.786;22.760;2023-08-17T07:33:01;99761.20;;;24.88;81.00
58662;BME280;44432;49.786;22.760;2023-08-17T07:35:32;99758.81;;;24.96;81.25
58662;BME280;44432;49.786;22.760;2023-08-17T07:38:03;99755.60;;;25.06;81.16
58662;BME280;44432;49.786;22.760;2023-08-17T07:40:34;99755.11;;;25.13;80.56
58662;BME280;44432;49.786;22.760;2023-08-17T07:43:05;99756.15;;;25.23;80.64
58662;BME280;44432;49.786;22.760;2023-08-17T07:45:36;99760.91;;;25.37;80.81
58662;BME280;44432;49.786;22.760;2023-08-17T07:48:07;99764.39;;;25.56;80.42
58662;BME280;44432;49.786;22.760;2023-08-17T07:50:38;99760.87;;;25.77;80.28
58662;BME280;44432;49.786;22.760;2023-08-17T07:53:08;99758.95;;;25.99;79.95
58662;BME280;44432;49.786;22.760;2023-08-17T07:55:39;99758.44;;;26.15;79.09
58662;BME280;44432;49.786;22.760;2023-08-17T07:58:10;99752.83;;;26.30;78.40
58662;BME280;44432;49.786;22.760;2023-08-17T08:00:40;99752.51;;;26.47;77.88
58662;BME280;44432;49.786;22.760;2023-08-17T08:03:11;99758.19;;;26.63;76.64
58662;BME280;44432;49.786;22.760;2023-08-17T08:05:42;99758.33;;;26.81;76.01
58662;BME280;44432;49.786;22.760;2023-08-17T08:08:12;99755.34;;;27.01;75.68
58662;BME280;44432;49.786;22.760;2023-08-17T08:10:44;99750.84;;;27.17;74.71
58662;BME280;44432;49.786;22.760;2023-08-17T08:13:14;99752.35;;;27.32;73.74
58662;BME280;44432;49.786;22.760;2023-08-17T08:15:45;99753.30;;;27.44;73.26
58662;BME280;44432;49.786;22.760;2023-08-17T08:18:16;99760.13;;;27.56;72.52
58662;BME280;44432;49.786;22.760;2023-08-17T08:20:47;99761.88;;;27.66;71.21
58662;BME280;44432;49.786;22.760;2023-08-17T08:23:18;99762.10;;;27.76;70.86
58662;BME280;44432;49.786;22.760;2023-08-17T08:25:48;99762.28;;;27.83;70.17
58662;BME280;44432;49.786;22.760;2023-08-17T08:28:19;99761.84;;;27.86;69.00
58662;BME280;44432;49.786;22.760;2023-08-17T08:30:49;99763.38;;;27.88;68.57
58662;BME280;44432;49.786;22.760;2023-08-17T08:33:20;99761.76;;;27.89;68.10
58662;BME280;44432;49.786;22.760;2023-08-17T08:35:51;99758.85;;;27.90;67.72
58662;BME280;44432;49.786;22.760;2023-08-17T08:38:22;99752.85;;;27.91;67.14
58662;BME280;44432;49.786;22.760;2023-08-17T08:40:52;99752.70;;;27.95;66.76
58662;BME280;44432;49.786;22.760;2023-08-17T08:43:23;99749.90;;;28.05;66.47
58662;BME280;44432;49.786;22.760;2023-08-17T08:45:55;99749.50;;;28.18;65.78
58662;BME280;44432;49.786;22.760;2023-08-17T08:48:27;99747.01;;;28.29;64.79
58662;BME280;44432;49.786;22.760;2023-08-17T08:51:01;99740.69;;;28.39;64.10
58662;BME280;44432;49.786;22.760;2023-08-17T08:53:38;99738.95;;;28.49;63.81
58662;BME280;44432;49.786;22.760;2023-08-17T08:56:12;99733.52;;;28.61;63.39
58662;BME280;44432;49.786;22.760;2023-08-17T08:58:43;99736.80;;;28.75;62.50
58662;BME280;44432;49.786;22.760;2023-08-17T09:01:15;99733.80;;;28.87;62.06
58662;BME280;44432;49.786;22.760;2023-08-17T09:03:48;99729.94;;;29.03;61.79
58662;BME280;44432;49.786;22.760;2023-08-17T09:06:19;99726.38;;;29.16;60.39
58662;BME280;44432;49.786;22.760;2023-08-17T09:08:52;99724.95;;;29.21;59.54
58662;BME280;44432;49.786;22.760;2023-08-17T09:11:24;99721.85;;;29.25;58.94
58662;BME280;44432;49.786;22.760;2023-08-17T09:13:55;99720.38;;;29.29;58.57
58662;BME280;44432;49.786;22.760;2023-08-17T09:16:25;99714.73;;;29.34;58.44
58662;BME280;44432;49.786;22.760;2023-08-17T09:18:57;99717.91;;;29.43;58.58
58662;BME280;44432;49.786;22.760;2023-08-17T09:21:32;99721.80;;;29.57;58.37
58662;BME280;44432;49.786;22.760;2023-08-17T09:24:04;99720.36;;;29.74;58.14
58662;BME280;44432;49.786;22.760;2023-08-17T09:26:35;99711.73;;;29.88;57.72
58662;BME280;44432;49.786;22.760;2023-08-17T09:29:18;99710.98;;;30.04;57.20
58662;BME280;44432;49.786;22.760;2023-08-17T09:31:49;99706.42;;;30.14;56.96
58662;BME280;44432;49.786;22.760;2023-08-17T09:34:20;99708.62;;;30.21;55.49
58662;BME280;44432;49.786;22.760;2023-08-17T09:36:51;99704.98;;;30.22;54.85
58662;BME280;44432;49.786;22.760;2023-08-17T09:39:21;99701.60;;;30.21;54.84
58662;BME280;44432;49.786;22.760;2023-08-17T09:41:56;99694.13;;;30.21;55.01
58662;BME280;44432;49.786;22.760;2023-08-17T09:44:26;99693.14;;;30.21;54.64
58662;BME280;44432;49.786;22.760;2023-08-17T09:46:58;99690.61;;;30.24;54.86
58662;BME280;44432;49.786;22.760;2023-08-17T09:49:32;99690.00;;;30.29;54.49
58662;BME280;44432;49.786;22.760;2023-08-17T09:52:03;99683.25;;;30.34;54.87
58662;BME280;44432;49.786;22.760;2023-08-17T09:54:34;99688.13;;;30.42;54.81
58662;BME280;44432;49.786;22.760;2023-08-17T09:57:05;99688.96;;;30.41;53.82
58662;BME280;44432;49.786;22.760;2023-08-17T09:59:36;99685.10;;;30.25;53.25
58662;BME280;44432;49.786;22.760;2023-08-17T10:02:16;99686.61;;;30.12;53.65
58662;BME280;44432;49.786;22.760;2023-08-17T10:04:51;99685.61;;;30.04;54.19
58662;BME280;44432;49.786;22.760;2023-08-17T10:07:28;99684.35;;;30.13;54.80
58662;BME280;44432;49.786;22.760;2023-08-17T10:10:03;99683.65;;;30.26;54.75
58662;BME280;44432;49.786;22.760;2023-08-17T10:12:39;99675.48;;;30.34;54.35
58662;BME280;44432;49.786;22.760;2023-08-17T10:15:15;99679.55;;;30.46;54.23
58662;BME280;44432;49.786;22.760;2023-08-17T10:17:53;99684.13;;;30.56;54.18
58662;BME280;44432;49.786;22.760;2023-08-17T10:20:29;99682.36;;;30.67;53.49
58662;BME280;44432;49.786;22.760;2023-08-17T10:23:07;99690.42;;;30.73;51.97
58662;BME280;44432;49.786;22.760;2023-08-17T10:25:42;99691.52;;;30.81;52.25
58662;BME280;44432;49.786;22.760;2023-08-17T10:28:13;99692.94;;;30.89;52.20
58662;BME280;44432;49.786;22.760;2023-08-17T10:30:45;99692.29;;;31.02;52.07
58662;BME280;44432;49.786;22.760;2023-08-17T10:33:18;99689.13;;;31.12;51.79
58662;BME280;44432;49.786;22.760;2023-08-17T10:35:49;99684.38;;;31.19;51.64
58662;BME280;44432;49.786;22.760;2023-08-17T10:38:20;99680.23;;;31.29;51.57
58662;BME280;44432;49.786;22.760;2023-08-17T10:41:09;99679.42;;;31.35;51.06
58662;BME280;44432;49.786;22.760;2023-08-17T10:43:56;99681.89;;;31.44;50.33
58662;BME280;44432;49.786;22.760;2023-08-17T10:46:39;99683.16;;;31.44;50.02
58662;BME280;44432;49.786;22.760;2023-08-17T10:49:25;99677.66;;;31.48;49.72
58662;BME280;44432;49.786;22.760;2023-08-17T10:52:03;99674.98;;;31.55;49.56
58662;BME280;44432;49.786;22.760;2023-08-17T10:54:39;99671.80;;;31.61;49.51
58662;BME280;44432;49.786;22.760;2023-08-17T10:57:33;99672.52;;;31.68;49.18
58662;BME280;44432;49.786;22.760;2023-08-17T11:00:12;99669.02;;;31.78;49.23
58662;BME280;44432;49.786;22.760;2023-08-17T11:02:49;99669.90;;;31.95;48.89
58662;BME280;44432;49.786;22.760;2023-08-17T11:08:23;99664.30;;;32.33;48.01
58662;BME280;44432;49.786;22.760;2023-08-17T11:11:04;99656.93;;;32.49;47.66
58662;BME280;44432;49.786;22.760;2023-08-17T11:13:36;99659.40;;;32.60;45.77
58662;BME280;44432;49.786;22.760;2023-08-17T11:16:09;99658.16;;;32.63;44.64
58662;BME280;44432;49.786;22.760;2023-08-17T11:18:40;99652.81;;;32.62;43.63
58662;BME280;44432;49.786;22.760;2023-08-17T11:21:12;99657.98;;;32.59;43.84
58662;BME280;44432;49.786;22.760;2023-08-17T11:23:44;99655.67;;;32.60;43.80
58662;BME280;44432;49.786;22.760;2023-08-17T11:26:18;99656.39;;;32.67;43.85
58662;BME280;44432;49.786;22.760;2023-08-17T11:28:49;99656.23;;;32.75;43.65
58662;BME280;44432;49.786;22.760;2023-08-17T11:31:20;99647.20;;;32.82;43.69
58662;BME280;44432;49.786;22.760;2023-08-17T11:33:51;99647.05;;;32.85;43.11
58662;BME280;44432;49.786;22.760;2023-08-17T11:36:22;99649.55;;;32.82;43.38
58662;BME280;44432;49.786;22.760;2023-08-17T11:38:53;99646.73;;;32.79;43.47
58662;BME280;44432;49.786;22.760;2023-08-17T11:41:24;99649.72;;;32.80;43.36
58662;BME280;44432;49.786;22.760;2023-08-17T11:43:56;99641.73;;;32.79;43.25
58662;BME280;44432;49.786;22.760;2023-08-17T11:46:27;99640.64;;;32.74;43.26
58662;BME280;44432;49.786;22.760;2023-08-17T11:49:01;99636.96;;;32.71;43.66
58662;BME280;44432;49.786;22.760;2023-08-17T11:51:33;99634.86;;;32.71;43.08
58662;BME280;44432;49.786;22.760;2023-08-17T11:54:04;99630.54;;;32.67;43.29
58662;BME280;44432;49.786;22.760;2023-08-17T11:56:37;99631.80;;;32.74;43.70
58662;BME280;44432;49.786;22.760;2023-08-17T11:59:12;99632.08;;;32.80;43.41
58662;BME280;44432;49.786;22.760;2023-08-17T12:01:49;99632.79;;;32.87;43.25
58662;BME280;44432;49.786;22.760;2023-08-17T12:04:22;99628.75;;;32.94;42.97
58662;BME280;44432;49.786;22.760;2023-08-17T12:06:53;99632.35;;;33.04;42.97
58662;BME280;44432;49.786;22.760;2023-08-17T12:09:24;99635.20;;;33.12;42.82
58662;BME280;44432;49.786;22.760;2023-08-17T12:12:01;99635.13;;;33.18;42.89
58662;BME280;44432;49.786;22.760;2023-08-17T12:14:31;99631.55;;;33.23;42.39
58662;BME280;44432;49.786;22.760;2023-08-17T12:17:03;99627.31;;;33.22;41.98
58662;BME280;44432;49.786;22.760;2023-08-17T12:19:34;99630.48;;;33.17;41.36
58662;BME280;44432;49.786;22.760;2023-08-17T12:22:05;99630.02;;;33.14;41.44
58662;BME280;44432;49.786;22.760;2023-08-17T12:24:36;99628.77;;;33.10;41.24
58662;BME280;44432;49.786;22.760;2023-08-17T12:27:08;99628.80;;;33.05;41.44
58662;BME280;44432;49.786;22.760;2023-08-17T12:29:48;99623.02;;;33.02;41.55
58662;BME280;44432;49.786;22.760;2023-08-17T12:32:20;99621.27;;;32.98;41.46
58662;BME280;44432;49.786;22.760;2023-08-17T12:34:50;99617.39;;;32.99;41.77
58662;BME280;44432;49.786;22.760;2023-08-17T12:37:22;99611.80;;;33.01;41.74
58662;BME280;44432;49.786;22.760;2023-08-17T12:39:52;99610.08;;;32.98;41.31
58662;BME280;44432;49.786;22.760;2023-08-17T12:42:23;99603.92;;;32.82;41.46
58662;BME280;44432;49.786;22.760;2023-08-17T12:44:54;99600.92;;;32.75;42.11
58662;BME280;44432;49.786;22.760;2023-08-17T12:47:24;99596.85;;;32.77;42.30
58662;BME280;44432;49.786;22.760;2023-08-17T12:49:55;99597.14;;;32.82;42.49
58662;BME280;44432;49.786;22.760;2023-08-17T12:52:26;99596.83;;;32.83;42.53
58662;BME280;44432;49.786;22.760;2023-08-17T12:54:57;99596.21;;;32.87;42.54
58662;BME280;44432;49.786;22.760;2023-08-17T12:57:28;99598.46;;;32.96;42.86
58662;BME280;44432;49.786;22.760;2023-08-17T12:59:59;99598.16;;;33.09;42.53
58662;BME280;44432;49.786;22.760;2023-08-17T13:02:30;99591.64;;;33.17;42.13
58662;BME280;44432;49.786;22.760;2023-08-17T13:05:00;99596.08;;;33.20;41.49
58662;BME280;44432;49.786;22.760;2023-08-17T13:07:31;99592.20;;;33.18;41.59
58662;BME280;44432;49.786;22.760;2023-08-17T13:10:02;99591.98;;;33.15;41.63
58662;BME280;44432;49.786;22.760;2023-08-17T13:12:33;99600.27;;;33.15;41.89
58662;BME280;44432;49.786;22.760;2023-08-17T13:15:05;99598.80;;;33.13;41.56
58662;BME280;44432;49.786;22.760;2023-08-17T13:17:36;99597.67;;;33.05;41.46
58662;BME280;44432;49.786;22.760;2023-08-17T13:20:09;99597.92;;;33.02;41.66